createdAt,value
2019-04-28T00:00:31.490Z,16.90
2019-04-28T00:03:00.775Z,17.40
2019-04-28T00:05:30.931Z,17.40
2019-04-28T00:08:01.182Z,17.00
2019-04-28T00:10:31.846Z,24.30
2019-04-28T00:13:01.035Z,29.90
2019-04-28T00:15:30.871Z,33.90
2019-04-28T00:18:01.602Z,34.40
2019-04-28T00:20:31.853Z,33.40
2019-04-28T00:23:18.578Z,40.40
2019-04-28T00:26:05.078Z,40.10
2019-04-28T00:28:33.876Z,35.50
2019-04-28T00:31:02.628Z,44.30
2019-04-28T00:33:31.502Z,52.00
2019-04-28T00:36:01.578Z,55.50
2019-04-28T00:38:31.668Z,49.90
2019-04-28T00:41:02.267Z,50.80
2019-04-28T00:43:31.803Z,57.80
2019-04-28T00:46:01.213Z,60.80
2019-04-28T00:48:30.922Z,73.00
2019-04-28T00:51:01.686Z,71.80
2019-04-28T00:53:31.086Z,79.20
2019-04-28T00:56:01.764Z,85.80
2019-04-28T00:58:31.915Z,86.20
2019-04-28T01:01:05.370Z,92.00
2019-04-28T01:03:34.208Z,93.10
2019-04-28T01:06:03.031Z,93.70
2019-04-28T01:08:31.820Z,93.50
2019-04-28T01:11:01.790Z,95.20
2019-04-28T01:13:31.951Z,95.90
2019-04-28T01:16:02.481Z,97.50
2019-04-28T01:18:32.886Z,99.60
2019-04-28T01:21:01.638Z,99.20
2019-04-28T01:23:30.410Z,99.70
2019-04-28T01:26:00.076Z,97.60
2019-04-28T01:28:29.756Z,97.50
2019-04-28T01:31:00.245Z,95.00
2019-04-28T01:33:40.664Z,96.00
2019-04-28T01:36:10.383Z,96.20
2019-04-28T01:38:40.165Z,95.30
2019-04-28T01:41:09.856Z,97.30
2019-04-28T01:43:38.778Z,96.00
2019-04-28T01:46:07.530Z,98.10
2019-04-28T01:48:36.268Z,94.80
2019-04-28T01:51:05.124Z,97.20
2019-04-28T01:53:33.920Z,98.10
2019-04-28T01:56:02.757Z,98.20
2019-04-28T01:58:31.587Z,92.10
2019-04-28T02:01:00.312Z,93.00
2019-04-28T02:03:30.805Z,94.70
2019-04-28T02:06:00.203Z,85.10
2019-04-28T02:08:30.239Z,86.70
2019-04-28T02:11:00.134Z,93.60
2019-04-28T02:13:29.863Z,90.00
2019-04-28T02:16:00.036Z,92.10
2019-04-28T02:18:29.903Z,92.20
2019-04-28T02:21:00.565Z,91.40
2019-04-28T02:23:31.240Z,91.10
2019-04-28T02:26:00.039Z,92.00
2019-04-28T02:28:29.623Z,95.20
2019-04-28T02:30:58.487Z,86.20
2019-04-28T02:33:27.293Z,73.90
2019-04-28T02:35:56.127Z,71.30
2019-04-28T02:38:24.900Z,71.20
2019-04-28T02:40:53.913Z,74.00
2019-04-28T02:43:22.688Z,80.00
2019-04-28T02:45:53.463Z,90.90
2019-04-28T02:48:23.683Z,83.20
2019-04-28T02:51:02.791Z,81.00
2019-04-28T02:53:33.707Z,79.30
2019-04-28T02:56:02.756Z,73.90
2019-04-28T02:58:31.587Z,70.30
2019-04-28T03:01:06.710Z,75.00
2019-04-28T03:03:30.984Z,73.90
2019-04-28T03:06:01.460Z,70.70
2019-04-28T03:08:30.823Z,58.90
2019-04-28T03:11:00.946Z,65.50
2019-04-28T03:13:31.109Z,71.50
2019-04-28T03:16:01.481Z,73.40
2019-04-28T03:18:31.770Z,71.50
2019-04-28T03:21:01.725Z,71.30
2019-04-28T03:23:31.729Z,74.40
2019-04-28T03:26:21.250Z,66.50
2019-04-28T03:29:03.499Z,59.10
2019-04-28T03:32:01.237Z,56.80
2019-04-28T03:34:05.020Z,59.50
2019-04-28T03:36:33.958Z,62.90
2019-04-28T03:39:02.709Z,69.10
2019-04-28T03:41:31.496Z,72.10
2019-04-28T03:44:00.566Z,80.30
2019-04-28T03:46:34.187Z,88.80
2019-04-28T03:49:03.041Z,91.90
2019-04-28T03:51:31.801Z,98.10
2019-04-28T03:54:02.998Z,99.90
2019-04-28T03:56:31.159Z,99.90
2019-04-28T03:59:00.532Z,99.90
2019-04-28T04:01:30.488Z,99.90
2019-04-28T04:04:01.189Z,99.90
2019-04-28T04:06:31.090Z,99.90
2019-04-28T04:09:00.398Z,99.90
2019-04-28T04:11:31.293Z,99.90
2019-04-28T04:14:01.962Z,99.90
2019-04-28T04:16:40.530Z,99.90
2019-04-28T04:19:10.745Z,99.90
2019-04-28T04:21:40.717Z,99.90
2019-04-28T04:24:10.824Z,99.90
2019-04-28T04:26:40.924Z,99.90
2019-04-28T04:29:10.392Z,99.90
2019-04-28T04:31:41.312Z,99.90
2019-04-28T04:34:10.646Z,99.90
2019-04-28T04:36:41.672Z,99.90
2019-04-28T04:39:10.779Z,99.90
2019-04-28T04:41:43.022Z,99.90
2019-04-28T04:44:11.186Z,99.90
2019-04-28T04:46:41.496Z,99.90
2019-04-28T04:49:10.803Z,99.90
2019-04-28T04:51:40.771Z,99.90
2019-04-28T04:54:10.851Z,99.90
2019-04-28T04:56:40.231Z,99.90
2019-04-28T04:59:10.220Z,99.90
2019-04-28T05:01:40.994Z,99.90
2019-04-28T05:04:23.490Z,99.90
2019-04-28T05:06:52.258Z,99.90
2019-04-28T05:09:21.090Z,99.90
2019-04-28T05:11:50.084Z,99.90
2019-04-28T05:14:19.920Z,99.90
2019-04-28T05:16:49.764Z,99.90
2019-04-28T05:19:19.907Z,99.90
2019-04-28T05:21:49.889Z,99.90
2019-04-28T05:24:20.693Z,99.90
2019-04-28T05:26:51.552Z,99.90
2019-04-28T05:29:26.625Z,99.90
2019-04-28T05:31:54.805Z,99.90
2019-04-28T05:34:24.067Z,99.90
2019-04-28T05:36:52.382Z,99.90
2019-04-28T05:39:21.109Z,99.90
2019-04-28T05:41:50.469Z,99.90
2019-04-28T05:44:20.359Z,99.90
2019-04-28T05:46:50.604Z,99.90
2019-04-28T05:49:23.957Z,99.90
2019-04-28T05:52:11.653Z,99.90
2019-04-28T05:54:41.289Z,99.90
2019-04-28T05:57:14.447Z,99.90
2019-04-28T05:59:44.874Z,99.90
2019-04-28T06:02:27.211Z,99.90
2019-04-28T06:04:56.041Z,99.90
2019-04-28T06:07:32.457Z,99.90
2019-04-28T06:10:01.229Z,99.90
2019-04-28T06:12:31.836Z,99.90
2019-04-28T06:15:00.479Z,99.90
2019-04-28T06:17:29.534Z,99.90
2019-04-28T06:20:00.071Z,99.90
2019-04-28T06:22:29.049Z,99.90
2019-04-28T06:24:57.841Z,99.90
2019-04-28T06:27:26.643Z,99.90
2019-04-28T06:29:55.439Z,99.90
2019-04-28T06:32:24.283Z,99.90
2019-04-28T06:34:53.066Z,99.90
2019-04-28T06:37:21.868Z,99.90
2019-04-28T06:39:50.668Z,99.90
2019-04-28T06:42:19.471Z,99.90
2019-04-28T06:44:48.334Z,99.90
2019-04-28T06:47:17.181Z,99.90
2019-04-28T06:49:45.957Z,99.90
2019-04-28T06:52:14.737Z,99.90
2019-04-28T06:54:43.565Z,99.90
2019-04-28T06:57:12.376Z,99.90
2019-04-28T06:59:41.173Z,99.90
2019-04-28T07:02:10.035Z,99.90
2019-04-28T07:04:38.864Z,99.90
2019-04-28T07:07:07.637Z,99.90
2019-04-28T07:09:36.394Z,99.90
2019-04-28T07:12:05.138Z,99.90
2019-04-28T07:14:33.898Z,99.90
2019-04-28T07:17:02.661Z,99.90
2019-04-28T07:19:33.461Z,99.90
2019-04-28T07:22:03.576Z,99.90
2019-04-28T07:24:32.349Z,99.90
2019-04-28T07:27:01.120Z,99.90
2019-04-28T07:29:29.912Z,99.90
2019-04-28T07:31:59.154Z,99.90
2019-04-28T07:34:27.904Z,99.90
2019-04-28T07:36:56.671Z,99.90
2019-04-28T07:39:25.477Z,99.90
2019-04-28T07:41:54.327Z,99.90
2019-04-28T07:44:23.226Z,99.90
2019-04-28T07:46:52.301Z,99.90
2019-04-28T07:49:21.150Z,99.90
2019-04-28T07:52:03.370Z,99.90
2019-04-28T07:54:32.458Z,99.90
2019-04-28T07:57:01.264Z,99.90
2019-04-28T07:59:30.166Z,99.90
2019-04-28T08:01:59.171Z,99.90
2019-04-28T08:04:27.961Z,99.90
2019-04-28T08:06:56.783Z,99.90
2019-04-28T08:09:25.554Z,99.90
2019-04-28T08:11:54.349Z,99.90
2019-04-28T08:14:23.095Z,99.90
2019-04-28T08:16:52.166Z,99.90
2019-04-28T08:19:20.957Z,99.90
2019-04-28T08:21:49.895Z,99.90
2019-04-28T08:24:18.760Z,99.90
2019-04-28T08:26:47.673Z,99.90
2019-04-28T08:29:16.745Z,99.90
2019-04-28T08:31:47.196Z,99.90
2019-04-28T08:34:17.568Z,99.90
2019-04-28T08:36:46.366Z,99.90
2019-04-28T08:39:15.173Z,99.90
2019-04-28T08:41:43.908Z,99.90
2019-04-28T08:44:12.690Z,99.90
2019-04-28T08:46:41.757Z,99.90
2019-04-28T08:49:10.901Z,99.90
2019-04-28T08:51:39.716Z,99.90
2019-04-28T08:54:08.483Z,99.90
2019-04-28T08:56:37.336Z,99.90
2019-04-28T08:59:06.120Z,99.90
2019-04-28T09:01:34.958Z,99.90
2019-04-28T09:04:14.874Z,99.90
2019-04-28T09:06:34.308Z,99.90
2019-04-28T09:09:04.693Z,99.90
2019-04-28T09:11:33.495Z,96.80
2019-04-28T09:14:02.324Z,97.30
2019-04-28T09:16:31.162Z,94.00
2019-04-28T09:19:00.004Z,97.80
2019-04-28T09:21:28.829Z,97.40
2019-04-28T09:23:57.570Z,99.90
2019-04-28T09:26:26.540Z,95.20
2019-04-28T09:28:55.383Z,90.10
2019-04-28T09:31:24.253Z,92.10
2019-04-28T09:33:53.094Z,93.60
2019-04-28T09:36:21.945Z,80.90
2019-04-28T09:38:51.106Z,79.70
2019-04-28T09:41:19.961Z,38.40
2019-04-28T09:43:53.117Z,29.30
2019-04-28T09:46:23.572Z,1.00
2019-04-28T09:48:52.379Z,1.00
2019-04-28T09:51:21.410Z,1.00
2019-04-28T09:53:50.164Z,1.00
2019-04-28T09:56:18.931Z,1.00
2019-04-28T09:58:47.754Z,1.00
2019-04-28T10:01:16.528Z,1.00
2019-04-28T10:03:45.282Z,1.00
2019-04-28T10:06:14.046Z,1.00
2019-04-28T10:08:42.794Z,1.00
2019-04-28T10:11:11.520Z,1.00
2019-04-28T10:13:40.304Z,1.00
2019-04-28T10:16:09.042Z,1.00
2019-04-28T10:18:37.897Z,1.00
2019-04-28T10:21:06.736Z,1.00
2019-04-28T10:23:35.556Z,1.00
2019-04-28T10:26:04.425Z,1.00
2019-04-28T10:28:33.171Z,1.00
2019-04-28T10:31:02.221Z,1.00
2019-04-28T10:33:31.005Z,1.00
2019-04-28T10:35:59.733Z,1.00
2019-04-28T10:38:28.481Z,1.00
2019-04-28T10:41:01.638Z,1.00
2019-04-28T10:43:30.483Z,1.00
2019-04-28T10:45:59.277Z,1.00
2019-04-28T10:48:28.150Z,1.00
2019-04-28T10:50:56.997Z,1.00
2019-04-28T10:53:25.465Z,1.00
2019-04-28T10:55:53.954Z,58.10
2019-04-28T10:58:22.483Z,99.90
2019-04-28T11:00:50.979Z,99.90
2019-04-28T11:03:19.473Z,99.90
2019-04-28T11:05:47.960Z,1.00
2019-04-28T11:08:27.101Z,84.40
2019-04-28T11:10:55.688Z,1.00
2019-04-28T11:13:24.198Z,1.00
2019-04-28T11:15:52.962Z,1.00
2019-04-28T11:18:21.592Z,1.00
2019-04-28T11:20:50.130Z,99.90
2019-04-28T11:23:18.718Z,99.90
2019-04-28T11:25:47.343Z,1.00
2019-04-28T11:28:15.876Z,1.00
2019-04-28T11:30:44.460Z,99.90
2019-04-28T11:33:14.738Z,99.90
2019-04-28T11:35:44.615Z,1.00
2019-04-28T11:38:13.310Z,99.90
2019-04-28T11:40:41.866Z,1.00
2019-04-28T11:43:10.467Z,99.90
2019-04-28T11:45:39.010Z,1.00
2019-04-28T11:48:07.521Z,1.00
2019-04-28T11:50:36.186Z,99.90
2019-04-28T11:53:06.724Z,99.90
2019-04-28T11:55:35.464Z,5.20
2019-04-28T11:58:04.567Z,1.00
2019-04-28T12:00:34.773Z,1.00
2019-04-28T12:03:03.687Z,1.00
2019-04-28T12:05:38.470Z,99.90
2019-04-28T12:08:07.247Z,99.90
2019-04-28T12:10:47.276Z,99.90
2019-04-28T12:13:17.873Z,26.10
2019-04-28T12:15:51.221Z,1.00
2019-04-28T12:18:37.677Z,1.00
2019-04-28T12:21:06.412Z,1.00
2019-04-28T12:23:35.181Z,1.00
2019-04-28T12:26:04.044Z,99.90
2019-04-28T12:28:32.839Z,99.90
2019-04-28T12:31:01.625Z,99.90
2019-04-28T12:33:30.424Z,99.90
2019-04-28T12:35:59.243Z,99.90
2019-04-28T12:38:28.002Z,99.90
2019-04-28T12:40:56.816Z,99.90
2019-04-28T12:43:25.905Z,1.00
2019-04-28T12:45:54.768Z,1.00
2019-04-28T12:48:23.833Z,1.00
2019-04-28T12:50:53.598Z,1.00
2019-04-28T12:53:23.225Z,1.00
2019-04-28T12:55:52.076Z,1.00
2019-04-28T12:58:20.886Z,1.00
2019-04-28T13:01:07.208Z,1.00
2019-04-28T13:03:43.380Z,1.00
2019-04-28T13:06:16.784Z,1.00
2019-04-28T13:08:45.609Z,1.00
2019-04-28T13:11:14.358Z,22.00
2019-04-28T13:13:43.206Z,1.00
2019-04-28T13:16:12.058Z,1.00
2019-04-28T13:18:41.054Z,1.00
2019-04-28T13:21:09.879Z,1.00
2019-04-28T13:23:38.658Z,1.00
2019-04-28T13:26:07.234Z,1.00
2019-04-28T13:28:35.816Z,99.90
2019-04-28T13:31:04.435Z,99.90
2019-04-28T13:33:33.102Z,99.90
2019-04-28T13:36:13.797Z,99.90
2019-04-28T13:38:31.894Z,93.90
2019-04-28T13:41:00.473Z,90.00
2019-04-28T13:43:29.017Z,99.90
2019-04-28T13:45:57.642Z,99.90
2019-04-28T13:48:26.150Z,99.90
2019-04-28T13:50:54.653Z,99.90
2019-04-28T13:53:23.227Z,99.90
2019-04-28T13:55:53.436Z,99.90
2019-04-28T13:58:23.650Z,99.90
2019-04-28T14:01:09.951Z,99.90
2019-04-28T14:03:49.211Z,99.90
2019-04-28T14:06:28.901Z,99.90
2019-04-28T14:08:57.663Z,99.90
2019-04-28T14:11:26.204Z,74.50
2019-04-28T14:13:54.752Z,28.40
2019-04-28T14:16:23.317Z,3.10
2019-04-28T14:18:51.785Z,1.00
2019-04-28T14:21:20.277Z,17.10
2019-04-28T14:23:49.271Z,47.50
2019-04-28T14:26:17.826Z,69.00
2019-04-28T14:28:46.350Z,87.10
2019-04-28T14:31:14.831Z,96.90
2019-04-28T14:33:43.615Z,99.90
2019-04-28T14:36:12.588Z,99.90
2019-04-28T14:38:43.048Z,99.90
2019-04-28T14:41:11.873Z,99.90
2019-04-28T14:43:40.749Z,99.90
2019-04-28T14:46:09.309Z,99.90
2019-04-28T14:48:37.796Z,99.90
2019-04-28T14:51:06.308Z,99.90
2019-04-28T14:53:34.922Z,99.90
2019-04-28T14:56:03.500Z,99.90
2019-04-28T14:58:32.007Z,98.40
2019-04-28T15:01:16.949Z,99.90
2019-04-28T15:03:53.095Z,99.90
2019-04-28T15:06:25.695Z,99.90
2019-04-28T15:08:55.961Z,99.90
2019-04-28T15:11:31.888Z,99.90
2019-04-28T15:14:00.437Z,99.90
2019-04-28T15:16:29.105Z,99.90
2019-04-28T15:18:57.686Z,99.90
2019-04-28T15:21:26.196Z,99.90
2019-04-28T15:23:54.685Z,97.30
2019-04-28T15:26:23.410Z,85.60
2019-04-28T15:28:52.125Z,85.80
2019-04-28T15:31:20.621Z,90.50
2019-04-28T15:33:49.131Z,88.20
2019-04-28T15:36:17.706Z,90.70
2019-04-28T15:38:46.271Z,95.00
2019-04-28T15:41:21.561Z,99.90
2019-04-28T15:43:45.280Z,93.50
2019-04-28T15:46:13.821Z,46.10
2019-04-28T15:48:42.286Z,56.10
2019-04-28T15:51:10.771Z,34.50
2019-04-28T15:53:39.320Z,35.90
2019-04-28T15:56:09.465Z,41.90
2019-04-28T15:58:39.656Z,43.20
2019-04-28T16:01:08.430Z,47.10
2019-04-28T16:03:36.927Z,40.00
2019-04-28T16:06:05.533Z,34.70
2019-04-28T16:08:34.120Z,28.10
2019-04-28T16:11:02.613Z,27.90
2019-04-28T16:13:31.249Z,25.60
2019-04-28T16:15:59.848Z,23.70
2019-04-28T16:18:28.334Z,29.40
2019-04-28T16:20:57.140Z,27.00
2019-04-28T16:23:25.918Z,15.20
2019-04-28T16:25:54.709Z,13.80
2019-04-28T16:28:23.199Z,1.00
2019-04-28T16:30:51.959Z,1.00
2019-04-28T16:33:20.768Z,1.00
2019-04-28T16:35:49.533Z,6.10
2019-04-28T16:38:18.288Z,1.00
2019-04-28T16:40:47.205Z,5.70
2019-04-28T16:43:19.200Z,19.70
2019-04-28T16:45:47.686Z,13.50
2019-04-28T16:48:16.506Z,12.80
2019-04-28T16:50:45.249Z,25.50
2019-04-28T16:53:14.033Z,38.60
2019-04-28T16:55:47.404Z,51.90
2019-04-28T16:58:23.563Z,58.40
2019-04-28T17:00:59.979Z,61.40
2019-04-28T17:03:38.665Z,66.00
2019-04-28T17:06:07.473Z,58.40
2019-04-28T17:08:36.246Z,63.90
2019-04-28T17:11:05.054Z,74.90
2019-04-28T17:13:33.818Z,76.90
2019-04-28T17:16:02.665Z,76.30
2019-04-28T17:18:31.429Z,92.90
2019-04-28T17:21:00.646Z,94.90
2019-04-28T17:23:29.568Z,69.70
2019-04-28T17:25:58.317Z,67.00
2019-04-28T17:28:27.699Z,70.90
2019-04-28T17:30:56.516Z,57.10
2019-04-28T17:33:25.979Z,74.40
2019-04-28T17:35:54.739Z,87.30
2019-04-28T17:38:23.609Z,99.20
2019-04-28T17:40:52.344Z,99.90
2019-04-28T17:43:21.109Z,99.90
2019-04-28T17:45:49.911Z,99.90
2019-04-28T17:48:20.346Z,99.90
2019-04-28T17:50:49.117Z,99.90
2019-04-28T17:53:17.859Z,99.90
2019-04-28T17:55:46.637Z,99.90
2019-04-28T17:58:15.397Z,99.90
2019-04-28T18:00:45.828Z,99.90
2019-04-28T18:03:32.536Z,99.90
2019-04-28T18:06:17.164Z,99.90
2019-04-28T18:08:36.398Z,99.90
2019-04-28T18:11:05.168Z,99.90
2019-04-28T18:13:33.947Z,99.90
2019-04-28T18:16:04.436Z,99.90
2019-04-28T18:18:37.494Z,1.00
2019-04-28T18:21:06.239Z,1.00
2019-04-28T18:23:35.000Z,1.00
2019-04-28T18:26:03.894Z,1.00
2019-04-28T18:28:32.669Z,1.00
2019-04-28T18:31:03.049Z,1.00
2019-04-28T18:33:33.501Z,99.90
2019-04-28T18:36:03.964Z,99.90
2019-04-28T18:38:46.235Z,99.90
2019-04-28T18:41:16.659Z,1.00
2019-04-28T18:44:02.265Z,1.00
2019-04-28T18:46:31.397Z,1.00
2019-04-28T18:49:00.176Z,3.20
2019-04-28T18:51:28.952Z,99.90
2019-04-28T18:53:57.688Z,1.00
2019-04-28T18:56:26.460Z,99.90
2019-04-28T18:58:55.217Z,99.90
2019-04-28T19:01:25.638Z,1.00
2019-04-28T19:03:54.653Z,1.00
2019-04-28T19:06:23.413Z,99.90
2019-04-28T19:08:53.851Z,1.00
2019-04-28T19:11:30.267Z,22.80
2019-04-28T19:14:03.672Z,99.90
2019-04-28T19:16:50.666Z,1.00
2019-04-28T19:19:21.157Z,99.90
2019-04-28T19:21:56.330Z,1.00
2019-04-28T19:24:26.280Z,78.90
2019-04-28T19:26:55.191Z,99.90
2019-04-28T19:29:24.063Z,1.00
2019-04-28T19:31:52.958Z,1.00
2019-04-28T19:34:21.718Z,1.00
2019-04-28T19:36:50.789Z,99.90
2019-04-28T19:39:19.625Z,1.00
2019-04-28T19:41:49.431Z,1.00
2019-04-28T19:44:18.279Z,99.90
2019-04-28T19:46:47.117Z,1.00
2019-04-28T19:49:15.937Z,1.00
2019-04-28T19:51:44.754Z,1.00
2019-04-28T19:54:13.992Z,1.00
2019-04-28T19:56:56.691Z,1.00
2019-04-28T19:59:27.153Z,99.90
2019-04-28T20:01:56.318Z,1.00
2019-04-28T20:04:25.173Z,99.90
2019-04-28T20:06:53.948Z,99.90
2019-04-28T20:09:22.944Z,1.00
2019-04-28T20:11:51.712Z,1.00
2019-04-28T20:14:20.496Z,92.90
2019-04-28T20:16:49.274Z,59.10
2019-04-28T20:19:18.115Z,99.90
2019-04-28T20:21:46.975Z,99.90
2019-04-28T20:24:15.746Z,99.90
2019-04-28T20:26:44.944Z,99.90
2019-04-28T20:29:13.766Z,99.90
2019-04-28T20:31:42.507Z,99.90
2019-04-28T20:34:11.247Z,99.90
2019-04-28T20:36:59.758Z,99.90
2019-04-28T20:39:30.136Z,99.90
2019-04-28T20:42:00.593Z,99.90
2019-04-28T20:44:29.378Z,99.90
2019-04-28T20:47:03.806Z,99.90
2019-04-28T20:49:32.625Z,1.00
2019-04-28T20:52:01.374Z,1.00
2019-04-28T20:54:30.137Z,99.90
2019-04-28T20:56:58.957Z,99.90
2019-04-28T20:59:27.761Z,99.90
2019-04-28T21:01:56.507Z,99.90
2019-04-28T21:04:25.273Z,99.90
2019-04-28T21:06:54.041Z,99.90
2019-04-28T21:09:22.792Z,1.00
2019-04-28T21:11:51.580Z,99.90
2019-04-28T21:14:20.861Z,99.90
2019-04-28T21:16:49.754Z,99.90
2019-04-28T21:19:18.470Z,1.00
2019-04-28T21:21:47.456Z,1.00
2019-04-28T21:24:17.013Z,1.00
2019-04-28T21:26:46.046Z,1.00
2019-04-28T21:29:14.848Z,1.00
2019-04-28T21:31:43.621Z,1.00
2019-04-28T21:34:12.408Z,1.00
2019-04-28T21:36:41.200Z,1.00
2019-04-28T21:39:10.008Z,1.00
2019-04-28T21:41:38.760Z,1.00
2019-04-28T21:44:24.202Z,1.00
2019-04-28T21:46:54.602Z,1.00
2019-04-28T21:49:30.769Z,1.00
2019-04-28T21:51:59.525Z,1.00
2019-04-28T21:54:28.247Z,1.00
2019-04-28T21:56:57.015Z,1.00
2019-04-28T21:59:25.869Z,1.00
2019-04-28T22:01:54.881Z,1.00
2019-04-28T22:04:23.612Z,1.00
2019-04-28T22:06:52.369Z,1.00
2019-04-28T22:09:21.214Z,1.00
2019-04-28T22:11:50.517Z,1.00
2019-04-28T22:14:19.541Z,1.00
2019-04-28T22:16:48.334Z,1.00
2019-04-28T22:19:17.103Z,1.00
2019-04-28T22:21:45.904Z,1.00
2019-04-28T22:24:16.305Z,1.00
2019-04-28T22:26:46.631Z,1.00
2019-04-28T22:29:15.446Z,1.00
2019-04-28T22:31:44.972Z,1.00
2019-04-28T22:34:14.574Z,1.00
2019-04-28T22:36:45.150Z,1.00
2019-04-28T22:39:14.456Z,1.00
2019-04-28T22:41:43.246Z,1.00
2019-04-28T22:44:12.045Z,1.00
2019-04-28T22:46:40.787Z,1.00
2019-04-28T22:49:09.538Z,1.00
2019-04-28T22:51:38.371Z,1.00
2019-04-28T22:54:08.810Z,1.00
2019-04-28T22:56:39.213Z,1.00
2019-04-28T22:59:09.645Z,1.00
2019-04-28T23:01:40.046Z,1.00
2019-04-28T23:04:27.093Z,1.00
2019-04-28T23:06:55.845Z,1.00
2019-04-28T23:09:24.619Z,1.00
2019-04-28T23:11:53.392Z,1.00
2019-04-28T23:14:22.120Z,1.00
2019-04-28T23:16:50.899Z,1.00
2019-04-28T23:19:21.294Z,1.00
2019-04-28T23:21:57.441Z,1.00
2019-04-28T23:24:26.217Z,1.00
2019-04-28T23:26:55.045Z,1.00
2019-04-28T23:29:23.780Z,1.00
2019-04-28T23:31:52.561Z,1.00
2019-04-28T23:34:21.442Z,1.00
2019-04-28T23:36:50.244Z,1.00
2019-04-28T23:39:18.982Z,1.00
2019-04-28T23:42:01.237Z,1.00
2019-04-28T23:44:30.286Z,1.00
2019-04-28T23:47:00.020Z,1.00
2019-04-28T23:49:30.163Z,1.00
2019-04-28T23:52:12.829Z,1.00
2019-04-28T23:54:43.209Z,1.00
2019-04-28T23:57:12.004Z,1.00
2019-04-28T23:59:40.857Z,1.00
